createdAt,value
2023-03-12T00:01:53.024Z,48.40
2023-03-12T00:04:35.748Z,40.30
2023-03-12T00:07:18.046Z,48.80
2023-03-12T00:10:06.864Z,48.13
2023-03-12T00:12:49.027Z,41.53
2023-03-12T00:15:38.945Z,46.58
2023-03-12T00:18:20.960Z,45.83
2023-03-12T00:21:10.805Z,45.00
2023-03-12T00:24:07.847Z,41.75
2023-03-12T00:26:50.124Z,46.20
2023-03-12T00:29:38.809Z,45.05
2023-03-12T00:32:21.812Z,46.42
2023-03-12T00:35:11.188Z,42.97
2023-03-12T00:37:59.124Z,45.00
2023-03-12T00:40:41.777Z,44.20
2023-03-12T00:43:30.822Z,45.22
2023-03-12T00:46:15.051Z,44.78
2023-03-12T00:49:03.876Z,46.85
2023-03-12T00:51:46.088Z,45.88
2023-03-12T00:54:34.854Z,47.03
2023-03-12T00:57:17.072Z,46.67
2023-03-12T01:00:05.857Z,46.78
2023-03-12T01:02:49.048Z,46.75
2023-03-12T01:05:37.841Z,47.25
2023-03-12T01:08:20.564Z,45.28
2023-03-12T01:11:10.813Z,46.17
2023-03-12T01:13:53.134Z,45.22
2023-03-12T01:16:41.879Z,44.40
2023-03-12T01:19:24.380Z,44.90
2023-03-12T01:22:12.738Z,41.83
2023-03-12T01:25:01.113Z,41.15
2023-03-12T01:27:43.781Z,40.35
2023-03-12T01:30:32.070Z,46.00
2023-03-12T01:33:14.829Z,43.60
2023-03-12T01:36:03.885Z,44.33
2023-03-12T01:38:46.044Z,44.35
2023-03-12T01:41:37.773Z,45.50
2023-03-12T01:44:23.087Z,39.50
2023-03-12T01:47:13.014Z,43.45
2023-03-12T01:49:58.075Z,44.03
2023-03-12T01:52:47.780Z,40.95
2023-03-12T01:55:36.711Z,42.13
2023-03-12T01:58:26.120Z,39.65
2023-03-12T02:01:08.821Z,41.45
2023-03-12T02:04:02.219Z,39.72
2023-03-12T02:07:11.810Z,38.72
2023-03-12T02:09:54.000Z,36.15
2023-03-12T02:12:42.712Z,37.13
2023-03-12T02:15:25.159Z,35.42
2023-03-12T02:18:14.816Z,34.75
2023-03-12T02:21:12.347Z,35.83
2023-03-12T02:24:16.777Z,34.22
2023-03-12T02:27:06.712Z,34.05
2023-03-12T02:29:53.079Z,34.95
2023-03-12T02:32:45.989Z,34.13
2023-03-12T02:35:28.099Z,34.50
2023-03-12T02:38:37.785Z,35.78
2023-03-12T02:41:26.104Z,38.63
2023-03-12T02:44:18.814Z,40.75
2023-03-12T02:47:04.096Z,37.10
2023-03-12T02:49:52.761Z,38.53
2023-03-12T02:52:37.366Z,36.75
2023-03-12T02:55:25.801Z,33.58
2023-03-12T02:58:08.109Z,31.60
2023-03-12T03:00:56.800Z,30.40
2023-03-12T03:03:45.817Z,30.13
2023-03-12T03:06:35.048Z,29.85
2023-03-12T03:09:17.843Z,29.45
2023-03-12T03:11:59.922Z,30.20
2023-03-12T03:17:39.773Z,32.60
2023-03-12T03:20:23.765Z,32.40
2023-03-12T03:23:14.223Z,33.15
2023-03-12T03:26:03.532Z,34.00
2023-03-12T03:28:46.734Z,33.95
2023-03-12T03:31:35.638Z,35.58
2023-03-12T03:34:24.784Z,34.58
2023-03-12T03:37:14.041Z,34.63
2023-03-12T03:39:55.799Z,30.95
2023-03-12T03:42:45.264Z,31.20
2023-03-12T03:45:27.818Z,28.15
2023-03-12T03:48:16.067Z,25.35
2023-03-12T03:50:58.767Z,27.30
2023-03-12T03:53:51.097Z,25.55
2023-03-12T03:56:33.728Z,27.85
2023-03-12T03:59:23.754Z,28.83
2023-03-12T04:02:07.073Z,28.42
2023-03-12T04:07:44.685Z,25.60
2023-03-12T04:10:37.716Z,25.70
2023-03-12T04:13:19.969Z,25.90
2023-03-12T04:16:08.850Z,24.10
2023-03-12T04:18:58.793Z,23.30
2023-03-12T04:21:40.957Z,21.35
2023-03-12T04:24:36.076Z,20.83
2023-03-12T04:27:24.048Z,19.42
2023-03-12T04:30:06.733Z,18.50
2023-03-12T04:32:48.990Z,19.65
2023-03-12T04:35:37.782Z,18.95
2023-03-12T04:38:27.102Z,18.25
2023-03-12T04:41:18.720Z,19.05
2023-03-12T04:44:07.175Z,17.83
2023-03-12T04:46:57.802Z,18.42
2023-03-12T04:49:41.195Z,16.92
2023-03-12T04:52:29.729Z,17.17
2023-03-12T04:55:13.037Z,15.77
2023-03-12T04:58:01.813Z,14.43
2023-03-12T05:00:50.817Z,17.77
2023-03-12T05:03:39.769Z,15.48
2023-03-12T05:06:30.736Z,15.98
2023-03-12T05:09:13.115Z,15.82
2023-03-12T05:12:01.819Z,17.02
2023-03-12T05:14:45.049Z,16.52
2023-03-12T05:17:33.774Z,17.87
2023-03-12T05:20:18.802Z,17.38
2023-03-12T05:23:07.795Z,17.73
2023-03-12T05:25:56.114Z,17.48
2023-03-12T05:28:38.859Z,18.25
2023-03-12T05:31:22.519Z,18.30
2023-03-12T05:34:11.736Z,17.92
2023-03-12T05:37:01.632Z,20.83
2023-03-12T05:39:54.837Z,18.42
2023-03-12T05:45:27.839Z,20.88
2023-03-12T05:48:17.724Z,21.52
2023-03-12T05:51:03.087Z,21.30
2023-03-12T05:53:57.487Z,18.92
2023-03-12T05:56:52.049Z,24.00
2023-03-12T05:59:43.763Z,21.00
2023-03-12T06:02:32.872Z,22.35
2023-03-12T06:05:16.463Z,23.42
2023-03-12T06:08:06.838Z,22.58
2023-03-12T06:10:58.083Z,22.48
2023-03-12T06:13:40.777Z,20.27
2023-03-12T06:16:32.817Z,20.75
2023-03-12T06:19:22.765Z,21.13
2023-03-12T06:22:11.732Z,19.27
2023-03-12T06:24:54.710Z,16.40
2023-03-12T06:27:43.794Z,16.95
2023-03-12T06:30:26.042Z,18.98
2023-03-12T06:33:16.793Z,18.02
2023-03-12T06:36:09.045Z,22.60
2023-03-12T06:38:58.144Z,20.80
2023-03-12T06:41:40.030Z,18.42
2023-03-12T06:44:28.805Z,19.05
2023-03-12T06:47:11.080Z,18.17
2023-03-12T06:49:59.800Z,18.08
2023-03-12T06:52:42.076Z,16.70
2023-03-12T06:55:30.716Z,18.33
2023-03-12T06:58:13.185Z,16.80
2023-03-12T07:01:02.760Z,16.65
2023-03-12T07:03:45.097Z,14.50
2023-03-12T07:06:33.862Z,15.88
2023-03-12T07:09:16.126Z,15.00
2023-03-12T07:12:04.852Z,15.20
2023-03-12T07:14:47.048Z,15.00
2023-03-12T07:17:35.781Z,16.25
2023-03-12T07:20:19.000Z,15.18
2023-03-12T07:23:08.730Z,13.95
2023-03-12T07:25:58.052Z,13.38
2023-03-12T07:28:40.746Z,14.77
2023-03-12T07:31:29.216Z,15.63
2023-03-12T07:34:13.874Z,15.05
2023-03-12T07:37:02.235Z,15.38
2023-03-12T07:39:44.836Z,14.90
2023-03-12T07:42:27.086Z,14.13
2023-03-12T07:45:15.717Z,18.63
2023-03-12T07:48:04.128Z,15.60
2023-03-12T07:50:46.770Z,17.13
2023-03-12T07:53:36.173Z,17.63
2023-03-12T07:56:17.946Z,16.75
2023-03-12T07:59:00.003Z,15.23
2023-03-12T08:01:48.915Z,19.35
2023-03-12T08:04:37.144Z,19.83
2023-03-12T08:07:19.817Z,14.20
2023-03-12T08:10:14.058Z,13.70
2023-03-12T08:12:56.818Z,13.77
2023-03-12T08:15:45.788Z,13.50
2023-03-12T08:18:29.183Z,13.18
2023-03-12T08:21:17.787Z,14.23
2023-03-12T08:24:06.751Z,14.70
2023-03-12T08:26:57.119Z,14.77
2023-03-12T08:29:40.702Z,15.57
2023-03-12T08:32:23.168Z,14.20
2023-03-12T08:35:13.788Z,15.50
2023-03-12T08:38:03.177Z,15.00
2023-03-12T08:40:45.726Z,16.45
2023-03-12T08:43:36.095Z,14.65
2023-03-12T08:46:19.147Z,15.07
2023-03-12T08:49:07.154Z,16.13
2023-03-12T08:51:48.805Z,17.05
2023-03-12T08:54:43.625Z,16.80
2023-03-12T08:57:33.772Z,17.27
2023-03-12T09:00:19.048Z,18.90
2023-03-12T09:03:07.776Z,16.75
2023-03-12T09:05:51.098Z,24.70
2023-03-12T09:08:41.843Z,20.90
2023-03-12T09:11:23.992Z,30.88
2023-03-12T09:14:50.201Z,22.13
2023-03-12T09:17:15.253Z,25.50
2023-03-12T09:20:06.734Z,39.00
2023-03-12T09:22:56.773Z,19.92
2023-03-12T09:25:52.780Z,28.77
2023-03-12T09:28:35.129Z,29.90
2023-03-12T09:31:23.739Z,29.35
2023-03-12T09:34:13.062Z,25.85
2023-03-12T09:36:55.825Z,27.33
2023-03-12T09:42:35.787Z,25.23
2023-03-12T09:45:36.131Z,25.55
2023-03-12T09:48:47.438Z,25.67
2023-03-12T09:51:37.166Z,25.30
2023-03-12T09:54:52.821Z,25.50
2023-03-12T09:57:42.063Z,25.08
2023-03-12T10:00:27.836Z,26.20
2023-03-12T10:03:38.221Z,26.55
2023-03-12T10:06:24.806Z,24.90
2023-03-12T10:09:28.256Z,23.92
2023-03-12T10:12:58.797Z,25.83
2023-03-12T10:15:59.242Z,23.48
2023-03-12T10:19:04.781Z,20.75
2023-03-12T10:22:16.138Z,20.67
2023-03-12T10:25:21.866Z,21.25
2023-03-12T10:28:28.217Z,20.63
2023-03-12T10:31:21.823Z,21.00
2023-03-12T10:34:25.086Z,18.88
2023-03-12T10:37:20.783Z,19.95
2023-03-12T10:40:03.464Z,18.95
2023-03-12T10:42:54.720Z,19.85
2023-03-12T10:46:08.116Z,18.67
2023-03-12T10:48:51.744Z,18.20
2023-03-12T10:51:40.037Z,18.05
2023-03-12T10:54:31.751Z,18.30
2023-03-12T10:57:16.371Z,19.75
2023-03-12T11:00:05.826Z,17.75
2023-03-12T11:02:56.462Z,19.95
2023-03-12T11:05:45.811Z,20.35
2023-03-12T11:08:44.170Z,20.08
2023-03-12T11:11:40.844Z,19.27
2023-03-12T11:14:31.253Z,22.17
2023-03-12T11:17:36.751Z,19.33
2023-03-12T11:20:37.744Z,17.90
2023-03-12T11:23:32.847Z,17.35
2023-03-12T11:26:22.220Z,20.38
2023-03-12T11:29:31.861Z,20.55
2023-03-12T11:32:17.265Z,21.05
2023-03-12T11:35:06.722Z,18.48
2023-03-12T11:38:07.066Z,18.90
2023-03-12T11:41:10.682Z,19.40
2023-03-12T11:44:13.696Z,18.55
2023-03-12T11:47:28.057Z,19.63
2023-03-12T11:50:40.712Z,18.92
2023-03-12T11:53:32.069Z,21.55
2023-03-12T11:56:36.073Z,18.48
2023-03-12T11:59:41.082Z,21.63
2023-03-12T12:02:46.802Z,20.38
2023-03-12T12:05:58.685Z,19.95
2023-03-12T12:09:16.071Z,17.75
2023-03-12T12:12:36.843Z,18.58
2023-03-12T12:15:58.148Z,18.38
2023-03-12T12:19:04.114Z,18.88
2023-03-12T12:22:06.231Z,18.65
2023-03-12T12:25:29.728Z,18.63
2023-03-12T12:29:13.827Z,17.90
2023-03-12T12:32:00.539Z,18.33
2023-03-12T12:35:30.832Z,19.05
2023-03-12T12:38:31.632Z,17.40
2023-03-12T12:41:35.722Z,17.60
2023-03-12T12:44:22.638Z,18.27
2023-03-12T12:47:20.751Z,18.48
2023-03-12T12:50:04.854Z,17.65
2023-03-12T12:52:53.750Z,17.33
2023-03-12T12:56:02.076Z,19.80
2023-03-12T12:58:57.776Z,18.70
2023-03-12T13:01:40.977Z,20.10
2023-03-12T13:04:41.712Z,18.13
2023-03-12T13:07:25.234Z,17.17
2023-03-12T13:10:21.807Z,19.38
2023-03-12T13:13:14.229Z,16.48
2023-03-12T13:16:03.846Z,18.23
2023-03-12T13:19:09.042Z,17.50
2023-03-12T13:22:10.738Z,18.60
2023-03-12T13:25:18.162Z,18.52
2023-03-12T13:28:30.735Z,18.10
2023-03-12T13:31:32.110Z,20.23
2023-03-12T13:34:28.152Z,18.88
2023-03-12T13:37:11.049Z,20.20
2023-03-12T13:39:59.721Z,20.67
2023-03-12T13:42:48.028Z,18.05
2023-03-12T13:45:39.753Z,16.95
2023-03-12T13:48:29.339Z,20.65
2023-03-12T13:51:33.787Z,19.00
2023-03-12T13:54:26.195Z,21.58
2023-03-12T13:57:20.696Z,21.45
2023-03-12T14:00:06.646Z,19.25
2023-03-12T14:03:05.713Z,22.58
2023-03-12T14:06:06.200Z,19.70
2023-03-12T14:09:20.745Z,22.77
2023-03-12T14:12:27.837Z,21.17
2023-03-12T14:15:30.752Z,21.42
2023-03-12T14:18:31.470Z,25.60
2023-03-12T14:21:24.970Z,24.98
2023-03-12T14:24:08.023Z,26.08
2023-03-12T14:26:57.736Z,25.45
2023-03-12T14:29:47.187Z,27.23
2023-03-12T14:32:39.887Z,25.67
2023-03-12T14:35:54.139Z,25.23
2023-03-12T14:38:50.735Z,26.15
2023-03-12T14:41:51.623Z,26.30
2023-03-12T14:44:44.770Z,26.17
2023-03-12T14:47:27.169Z,27.70
2023-03-12T14:50:24.839Z,26.83
2023-03-12T14:53:21.137Z,27.35
2023-03-12T14:56:18.699Z,26.75
2023-03-12T14:59:01.044Z,28.08
2023-03-12T15:01:49.941Z,27.75
2023-03-12T15:04:33.084Z,28.02
2023-03-12T15:07:26.741Z,27.33
2023-03-12T15:10:14.002Z,26.95
2023-03-12T15:13:05.833Z,26.70
2023-03-12T15:15:56.595Z,26.33
2023-03-12T15:18:45.798Z,27.17
2023-03-12T15:21:29.053Z,27.90
2023-03-12T15:24:21.027Z,26.60
2023-03-12T15:27:36.722Z,26.63
2023-03-12T15:30:39.085Z,27.45
2023-03-12T15:33:25.730Z,30.17
2023-03-12T15:36:25.820Z,28.52
2023-03-12T15:39:12.096Z,23.50
2023-03-12T15:42:01.818Z,26.98
2023-03-12T15:44:56.150Z,27.27
2023-03-12T15:47:48.753Z,27.42
2023-03-12T15:50:56.858Z,27.65
2023-03-12T15:53:46.003Z,23.45
2023-03-12T15:56:31.728Z,22.50
2023-03-12T15:59:37.008Z,22.85
2023-03-12T16:02:20.806Z,22.88
2023-03-12T16:05:09.082Z,28.15
2023-03-12T16:07:51.830Z,27.48
2023-03-12T16:10:42.986Z,28.48
2023-03-12T16:13:30.771Z,29.13
2023-03-12T16:16:21.194Z,28.25
2023-03-12T16:19:02.848Z,29.92
2023-03-12T16:21:52.297Z,29.90
2023-03-12T16:24:33.769Z,29.52
2023-03-12T16:27:32.832Z,29.13
2023-03-12T16:30:39.812Z,29.25
2023-03-12T16:33:25.109Z,30.63
2023-03-12T16:36:24.201Z,28.45
2023-03-12T16:39:06.209Z,30.60
2023-03-12T16:41:55.813Z,30.73
2023-03-12T16:44:42.035Z,29.92
2023-03-12T16:47:30.775Z,31.25
2023-03-12T16:50:23.507Z,31.48
2023-03-12T16:53:12.751Z,33.42
2023-03-12T16:56:07.764Z,32.40
2023-03-12T16:58:57.694Z,34.40
2023-03-12T17:01:40.071Z,33.25
2023-03-12T17:04:28.801Z,28.55
2023-03-12T17:07:11.050Z,26.80
2023-03-12T17:09:59.810Z,27.77
2023-03-12T17:12:54.673Z,25.50
2023-03-12T17:15:37.291Z,24.92
2023-03-12T17:18:26.688Z,26.92
2023-03-12T17:21:12.731Z,30.05
2023-03-12T17:24:03.716Z,34.17
2023-03-12T17:26:54.378Z,38.50
2023-03-12T17:29:36.993Z,38.22
2023-03-12T17:32:26.271Z,35.67
2023-03-12T17:35:10.745Z,34.95
2023-03-12T17:37:53.143Z,35.50
2023-03-12T17:40:43.730Z,34.80
2023-03-12T17:43:26.113Z,35.00
2023-03-12T17:46:19.805Z,36.03
2023-03-12T17:49:09.056Z,35.00
2023-03-12T17:51:52.729Z,36.53
2023-03-12T17:54:42.201Z,35.95
2023-03-12T17:57:26.069Z,35.78
2023-03-12T18:00:13.715Z,33.33
2023-03-12T18:03:02.830Z,33.88
2023-03-12T18:05:51.042Z,34.70
2023-03-12T18:08:33.744Z,36.58
2023-03-12T18:11:16.000Z,36.22
2023-03-12T18:14:04.820Z,34.92
2023-03-12T18:16:53.089Z,36.58
2023-03-12T18:19:50.730Z,36.83
2023-03-12T18:22:33.054Z,36.95
2023-03-12T18:25:21.756Z,36.03
2023-03-12T18:28:16.600Z,37.28
2023-03-12T18:31:05.778Z,36.90
2023-03-12T18:33:48.052Z,36.67
2023-03-12T18:36:36.733Z,36.42
2023-03-12T18:39:19.122Z,36.80
2023-03-12T18:42:07.684Z,36.17
2023-03-12T18:44:58.708Z,37.53
2023-03-12T18:47:51.256Z,36.88
2023-03-12T18:50:33.711Z,34.05
2023-03-12T18:53:22.033Z,39.50
2023-03-12T18:56:05.786Z,38.83
2023-03-12T18:58:54.021Z,39.75
2023-03-12T19:01:36.782Z,37.92
2023-03-12T19:04:20.692Z,39.83
2023-03-12T19:07:09.686Z,39.40
2023-03-12T19:09:58.060Z,43.22
2023-03-12T19:12:51.381Z,44.55
2023-03-12T19:15:47.209Z,40.97
2023-03-12T19:18:29.751Z,43.78
2023-03-12T19:21:19.608Z,44.67
2023-03-12T19:24:02.779Z,43.55
2023-03-12T19:26:57.729Z,43.92
2023-03-12T19:29:46.103Z,42.40
2023-03-12T19:32:33.351Z,44.47
2023-03-12T19:35:31.199Z,41.72
2023-03-12T19:38:13.705Z,44.13
2023-03-12T19:41:05.035Z,43.27
2023-03-12T19:43:48.720Z,43.72
2023-03-12T19:46:38.742Z,41.75
2023-03-12T19:49:21.543Z,44.10
2023-03-12T19:52:13.341Z,40.92
2023-03-12T19:55:04.197Z,42.72
2023-03-12T19:57:53.768Z,42.70
2023-03-12T20:00:42.684Z,45.85
2023-03-12T20:03:25.121Z,42.67
2023-03-12T20:06:14.715Z,47.63
2023-03-12T20:09:03.001Z,44.53
2023-03-12T20:11:45.780Z,47.90
2023-03-12T20:14:35.125Z,48.13
2023-03-12T20:17:18.077Z,47.13
2023-03-12T20:20:07.449Z,47.88
2023-03-12T20:22:49.659Z,47.00
2023-03-12T20:25:31.915Z,46.72
2023-03-12T20:28:20.709Z,48.42
2023-03-12T20:31:20.502Z,46.72
2023-03-12T20:34:03.697Z,44.22
2023-03-12T20:36:51.978Z,49.92
2023-03-12T20:39:33.709Z,49.20
2023-03-12T20:42:22.685Z,57.10
2023-03-12T20:45:05.308Z,56.78
2023-03-12T20:47:53.739Z,61.17
2023-03-12T20:50:37.036Z,76.15
2023-03-12T20:53:25.702Z,87.63
2023-03-12T20:56:08.000Z,91.75
2023-03-12T20:58:56.731Z,95.57
2023-03-12T21:01:39.011Z,92.28
2023-03-12T21:04:27.765Z,96.25
2023-03-12T21:07:10.029Z,94.68
2023-03-12T21:09:58.714Z,97.22
2023-03-12T21:12:41.061Z,97.85
2023-03-12T21:15:30.687Z,97.00
2023-03-12T21:18:12.973Z,95.60
2023-03-12T21:21:02.073Z,97.03
2023-03-12T21:23:45.143Z,97.40
2023-03-12T21:26:36.460Z,98.87
2023-03-12T21:29:31.721Z,96.75
2023-03-12T21:32:13.851Z,92.90
2023-03-12T21:35:03.692Z,93.68
2023-03-12T21:37:45.894Z,91.68
2023-03-12T21:40:34.700Z,91.38
2023-03-12T21:43:23.014Z,88.95
2023-03-12T21:46:04.769Z,89.95
2023-03-12T21:48:55.699Z,89.13
2023-03-12T21:51:44.710Z,90.10
2023-03-12T21:54:34.721Z,88.65
2023-03-12T21:57:17.053Z,85.63
2023-03-12T22:00:05.732Z,84.47
2023-03-12T22:02:51.209Z,80.57
2023-03-12T22:05:39.741Z,85.25
2023-03-12T22:08:22.044Z,80.00
2023-03-12T22:11:11.730Z,81.82
2023-03-12T22:13:54.078Z,81.68
2023-03-12T22:16:42.786Z,83.32
2023-03-12T22:19:25.491Z,83.55
2023-03-12T22:22:14.946Z,88.67
2023-03-12T22:24:56.989Z,80.95
2023-03-12T22:27:45.750Z,79.57
2023-03-12T22:30:28.038Z,77.47
2023-03-12T22:33:17.705Z,78.93
2023-03-12T22:36:00.089Z,71.53
2023-03-12T22:38:48.687Z,59.90
2023-03-12T22:41:34.073Z,47.65
2023-03-12T22:44:23.645Z,48.97
2023-03-12T22:47:12.758Z,43.97
2023-03-12T22:50:01.013Z,42.15
2023-03-12T22:52:43.697Z,41.53
2023-03-12T22:55:25.940Z,42.33
2023-03-12T22:58:14.663Z,41.13
2023-03-12T23:01:18.154Z,39.97
2023-03-12T23:04:00.648Z,39.85
2023-03-12T23:06:49.675Z,41.15
2023-03-12T23:09:31.909Z,39.67
2023-03-12T23:12:20.707Z,39.97
2023-03-12T23:15:02.975Z,39.38
2023-03-12T23:17:51.642Z,39.75
2023-03-12T23:20:33.969Z,41.00
2023-03-12T23:23:25.753Z,39.22
2023-03-12T23:26:09.058Z,39.35
2023-03-12T23:29:00.664Z,38.35
2023-03-12T23:31:47.515Z,38.53
2023-03-12T23:34:36.701Z,37.90
2023-03-12T23:37:20.034Z,38.45
2023-03-12T23:40:08.757Z,36.53
2023-03-12T23:42:52.024Z,36.03
2023-03-12T23:45:40.744Z,37.33
2023-03-12T23:48:29.721Z,36.28
2023-03-12T23:51:13.673Z,33.75
2023-03-12T23:54:04.935Z,36.35
2023-03-12T23:56:54.151Z,34.90
2023-03-12T23:59:35.703Z,31.48
